sensor_id;sensor_type;location;lat;lon;timestamp;P1;durP1;ratioP1;P2;durP2;ratioP2
19388;SDS011;9830;41.876;23.474;2023-04-29T00:01:17;0.33;;;0.20;;
19388;SDS011;9830;41.876;23.474;2023-04-29T00:03:42;0.10;;;0.10;;
19388;SDS011;9830;41.876;23.474;2023-04-29T00:06:08;1.03;;;0.83;;
19388;SDS011;9830;41.876;23.474;2023-04-29T00:08:35;0.00;;;0.00;;
19388;SDS011;9830;41.876;23.474;2023-04-29T00:11:01;4.87;;;1.37;;
19388;SDS011;9830;41.876;23.474;2023-04-29T00:13:27;0.00;;;0.00;;
19388;SDS011;9830;41.876;23.474;2023-04-29T00:15:52;1.70;;;1.00;;
19388;SDS011;9830;41.876;23.474;2023-04-29T00:18:18;0.17;;;0.17;;
19388;SDS011;9830;41.876;23.474;2023-04-29T00:20:44;0.10;;;0.10;;
19388;SDS011;9830;41.876;23.474;2023-04-29T00:23:09;0.17;;;0.17;;
19388;SDS011;9830;41.876;23.474;2023-04-29T00:25:35;0.30;;;0.30;;
19388;SDS011;9830;41.876;23.474;2023-04-29T00:28:03;0.63;;;0.63;;
19388;SDS011;9830;41.876;23.474;2023-04-29T00:30:30;3.37;;;0.97;;
19388;SDS011;9830;41.876;23.474;2023-04-29T00:32:57;0.10;;;0.10;;
19388;SDS011;9830;41.876;23.474;2023-04-29T00:35:23;0.50;;;0.43;;
19388;SDS011;9830;41.876;23.474;2023-04-29T00:37:48;3.00;;;0.43;;
19388;SDS011;9830;41.876;23.474;2023-04-29T00:40:14;2.57;;;1.23;;
19388;SDS011;9830;41.876;23.474;2023-04-29T00:42:41;0.03;;;0.03;;
19388;SDS011;9830;41.876;23.474;2023-04-29T00:45:08;0.63;;;0.57;;
19388;SDS011;9830;41.876;23.474;2023-04-29T00:47:35;0.00;;;0.00;;
19388;SDS011;9830;41.876;23.474;2023-04-29T00:50:01;0.40;;;0.40;;
19388;SDS011;9830;41.876;23.474;2023-04-29T00:52:28;0.30;;;0.30;;
19388;SDS011;9830;41.876;23.474;2023-04-29T00:54:57;0.37;;;0.37;;
19388;SDS011;9830;41.876;23.474;2023-04-29T00:57:24;1.43;;;1.13;;
19388;SDS011;9830;41.876;23.474;2023-04-29T00:59:53;0.67;;;0.67;;
19388;SDS011;9830;41.876;23.474;2023-04-29T01:02:19;0.00;;;0.00;;
19388;SDS011;9830;41.876;23.474;2023-04-29T01:04:45;1.20;;;1.00;;
19388;SDS011;9830;41.876;23.474;2023-04-29T01:10:14;0.00;;;0.00;;
19388;SDS011;9830;41.876;23.474;2023-04-29T01:12:53;0.30;;;0.30;;
19388;SDS011;9830;41.876;23.474;2023-04-29T01:15:39;2.87;;;0.40;;
19388;SDS011;9830;41.876;23.474;2023-04-29T01:18:26;0.67;;;0.20;;
19388;SDS011;9830;41.876;23.474;2023-04-29T01:20:57;0.23;;;0.23;;
19388;SDS011;9830;41.876;23.474;2023-04-29T01:23:26;0.20;;;0.20;;
19388;SDS011;9830;41.876;23.474;2023-04-29T01:25:52;0.23;;;0.23;;
19388;SDS011;9830;41.876;23.474;2023-04-29T01:30:59;0.10;;;0.10;;
19388;SDS011;9830;41.876;23.474;2023-04-29T01:41:56;0.93;;;0.80;;
19388;SDS011;9830;41.876;23.474;2023-04-29T01:44:28;1.90;;;0.40;;
19388;SDS011;9830;41.876;23.474;2023-04-29T01:46:55;0.23;;;0.23;;
19388;SDS011;9830;41.876;23.474;2023-04-29T01:49:26;0.07;;;0.07;;
19388;SDS011;9830;41.876;23.474;2023-04-29T01:51:52;0.63;;;0.63;;
19388;SDS011;9830;41.876;23.474;2023-04-29T01:54:18;0.23;;;0.23;;
19388;SDS011;9830;41.876;23.474;2023-04-29T01:56:46;0.10;;;0.10;;
19388;SDS011;9830;41.876;23.474;2023-04-29T01:59:11;0.20;;;0.20;;
19388;SDS011;9830;41.876;23.474;2023-04-29T02:01:37;0.10;;;0.10;;
19388;SDS011;9830;41.876;23.474;2023-04-29T02:04:03;0.00;;;0.00;;
19388;SDS011;9830;41.876;23.474;2023-04-29T02:06:28;0.67;;;0.67;;
19388;SDS011;9830;41.876;23.474;2023-04-29T02:08:56;0.17;;;0.17;;
19388;SDS011;9830;41.876;23.474;2023-04-29T02:11:22;0.13;;;0.07;;
19388;SDS011;9830;41.876;23.474;2023-04-29T02:13:48;0.53;;;0.37;;
19388;SDS011;9830;41.876;23.474;2023-04-29T02:16:14;0.00;;;0.00;;
19388;SDS011;9830;41.876;23.474;2023-04-29T02:18:40;0.20;;;0.07;;
19388;SDS011;9830;41.876;23.474;2023-04-29T02:21:06;0.50;;;0.50;;
19388;SDS011;9830;41.876;23.474;2023-04-29T02:23:32;0.67;;;0.67;;
19388;SDS011;9830;41.876;23.474;2023-04-29T02:26:01;2.90;;;0.30;;
19388;SDS011;9830;41.876;23.474;2023-04-29T02:28:30;1.67;;;1.03;;
19388;SDS011;9830;41.876;23.474;2023-04-29T02:30:56;2.27;;;0.27;;
19388;SDS011;9830;41.876;23.474;2023-04-29T02:33:21;0.20;;;0.20;;
19388;SDS011;9830;41.876;23.474;2023-04-29T02:35:47;0.27;;;0.20;;
19388;SDS011;9830;41.876;23.474;2023-04-29T02:38:13;1.17;;;0.77;;
19388;SDS011;9830;41.876;23.474;2023-04-29T02:40:42;1.20;;;0.77;;
19388;SDS011;9830;41.876;23.474;2023-04-29T02:43:08;0.20;;;0.20;;
19388;SDS011;9830;41.876;23.474;2023-04-29T02:45:34;1.27;;;0.87;;
19388;SDS011;9830;41.876;23.474;2023-04-29T02:48:00;0.63;;;0.40;;
19388;SDS011;9830;41.876;23.474;2023-04-29T02:50:26;0.10;;;0.10;;
19388;SDS011;9830;41.876;23.474;2023-04-29T02:52:52;0.10;;;0.10;;
19388;SDS011;9830;41.876;23.474;2023-04-29T02:55:18;0.57;;;0.57;;
19388;SDS011;9830;41.876;23.474;2023-04-29T02:57:44;0.20;;;0.20;;
19388;SDS011;9830;41.876;23.474;2023-04-29T03:00:09;0.30;;;0.30;;
19388;SDS011;9830;41.876;23.474;2023-04-29T03:02:35;0.40;;;0.40;;
19388;SDS011;9830;41.876;23.474;2023-04-29T03:05:01;12.73;;;1.53;;
19388;SDS011;9830;41.876;23.474;2023-04-29T03:07:28;0.10;;;0.10;;
19388;SDS011;9830;41.876;23.474;2023-04-29T03:09:54;0.33;;;0.33;;
19388;SDS011;9830;41.876;23.474;2023-04-29T03:12:20;0.40;;;0.40;;
19388;SDS011;9830;41.876;23.474;2023-04-29T03:14:46;2.80;;;1.73;;
19388;SDS011;9830;41.876;23.474;2023-04-29T03:17:12;3.53;;;0.60;;
19388;SDS011;9830;41.876;23.474;2023-04-29T03:19:38;0.20;;;0.20;;
19388;SDS011;9830;41.876;23.474;2023-04-29T03:22:04;1.70;;;0.47;;
19388;SDS011;9830;41.876;23.474;2023-04-29T03:24:30;0.57;;;0.57;;
19388;SDS011;9830;41.876;23.474;2023-04-29T03:26:56;0.30;;;0.30;;
19388;SDS011;9830;41.876;23.474;2023-04-29T03:29:24;0.43;;;0.40;;
19388;SDS011;9830;41.876;23.474;2023-04-29T03:31:51;0.27;;;0.27;;
19388;SDS011;9830;41.876;23.474;2023-04-29T03:34:18;0.10;;;0.10;;
19388;SDS011;9830;41.876;23.474;2023-04-29T03:36:43;0.47;;;0.47;;
19388;SDS011;9830;41.876;23.474;2023-04-29T03:39:09;0.23;;;0.23;;
19388;SDS011;9830;41.876;23.474;2023-04-29T03:41:36;1.03;;;0.93;;
19388;SDS011;9830;41.876;23.474;2023-04-29T03:44:02;0.20;;;0.20;;
19388;SDS011;9830;41.876;23.474;2023-04-29T03:46:29;0.40;;;0.40;;
19388;SDS011;9830;41.876;23.474;2023-04-29T03:48:54;0.50;;;0.27;;
19388;SDS011;9830;41.876;23.474;2023-04-29T03:51:21;0.03;;;0.03;;
19388;SDS011;9830;41.876;23.474;2023-04-29T03:53:48;0.03;;;0.03;;
19388;SDS011;9830;41.876;23.474;2023-04-29T03:56:14;0.40;;;0.40;;
19388;SDS011;9830;41.876;23.474;2023-04-29T03:58:40;0.50;;;0.50;;
19388;SDS011;9830;41.876;23.474;2023-04-29T04:01:06;0.47;;;0.47;;
19388;SDS011;9830;41.876;23.474;2023-04-29T04:03:31;6.13;;;1.23;;
19388;SDS011;9830;41.876;23.474;2023-04-29T04:05:57;0.73;;;0.53;;
19388;SDS011;9830;41.876;23.474;2023-04-29T04:08:23;0.43;;;0.30;;
19388;SDS011;9830;41.876;23.474;2023-04-29T04:10:48;0.30;;;0.30;;
19388;SDS011;9830;41.876;23.474;2023-04-29T04:13:14;0.20;;;0.20;;
19388;SDS011;9830;41.876;23.474;2023-04-29T04:15:40;0.30;;;0.20;;
19388;SDS011;9830;41.876;23.474;2023-04-29T04:18:06;1.93;;;1.83;;
19388;SDS011;9830;41.876;23.474;2023-04-29T04:20:32;0.57;;;0.50;;
19388;SDS011;9830;41.876;23.474;2023-04-29T04:23:01;2.33;;;1.47;;
19388;SDS011;9830;41.876;23.474;2023-04-29T04:25:26;1.70;;;1.37;;
19388;SDS011;9830;41.876;23.474;2023-04-29T04:27:53;0.10;;;0.10;;
19388;SDS011;9830;41.876;23.474;2023-04-29T04:30:19;0.20;;;0.10;;
19388;SDS011;9830;41.876;23.474;2023-04-29T04:32:44;14.33;;;0.93;;
19388;SDS011;9830;41.876;23.474;2023-04-29T04:35:10;1.57;;;0.63;;
19388;SDS011;9830;41.876;23.474;2023-04-29T04:37:37;0.30;;;0.30;;
19388;SDS011;9830;41.876;23.474;2023-04-29T04:40:02;0.60;;;0.60;;
19388;SDS011;9830;41.876;23.474;2023-04-29T04:42:28;1.80;;;0.87;;
19388;SDS011;9830;41.876;23.474;2023-04-29T04:44:54;0.77;;;0.77;;
19388;SDS011;9830;41.876;23.474;2023-04-29T04:47:20;1.23;;;1.00;;
19388;SDS011;9830;41.876;23.474;2023-04-29T04:49:45;3.40;;;2.00;;
19388;SDS011;9830;41.876;23.474;2023-04-29T04:52:11;0.97;;;0.87;;
19388;SDS011;9830;41.876;23.474;2023-04-29T04:54:37;0.63;;;0.63;;
19388;SDS011;9830;41.876;23.474;2023-04-29T04:57:02;8.10;;;1.80;;
19388;SDS011;9830;41.876;23.474;2023-04-29T04:59:30;1.03;;;1.00;;
19388;SDS011;9830;41.876;23.474;2023-04-29T05:01:56;0.60;;;0.60;;
19388;SDS011;9830;41.876;23.474;2023-04-29T05:04:21;2.00;;;1.40;;
19388;SDS011;9830;41.876;23.474;2023-04-29T05:06:47;0.50;;;0.50;;
19388;SDS011;9830;41.876;23.474;2023-04-29T05:09:13;3.73;;;2.17;;
19388;SDS011;9830;41.876;23.474;2023-04-29T05:11:38;1.90;;;1.70;;
19388;SDS011;9830;41.876;23.474;2023-04-29T05:14:05;2.03;;;1.73;;
19388;SDS011;9830;41.876;23.474;2023-04-29T05:16:31;5.73;;;1.40;;
19388;SDS011;9830;41.876;23.474;2023-04-29T05:18:57;3.10;;;2.50;;
19388;SDS011;9830;41.876;23.474;2023-04-29T05:21:22;5.83;;;3.07;;
19388;SDS011;9830;41.876;23.474;2023-04-29T05:23:48;2.00;;;1.63;;
19388;SDS011;9830;41.876;23.474;2023-04-29T05:26:14;5.13;;;3.07;;
19388;SDS011;9830;41.876;23.474;2023-04-29T05:28:39;2.60;;;2.17;;
19388;SDS011;9830;41.876;23.474;2023-04-29T05:31:05;3.73;;;1.63;;
19388;SDS011;9830;41.876;23.474;2023-04-29T05:33:31;5.13;;;2.53;;
19388;SDS011;9830;41.876;23.474;2023-04-29T05:35:57;1.47;;;1.37;;
19388;SDS011;9830;41.876;23.474;2023-04-29T05:38:22;1.60;;;1.50;;
19388;SDS011;9830;41.876;23.474;2023-04-29T05:40:53;10.17;;;2.13;;
19388;SDS011;9830;41.876;23.474;2023-04-29T05:43:21;5.33;;;3.57;;
19388;SDS011;9830;41.876;23.474;2023-04-29T05:45:47;7.57;;;2.33;;
19388;SDS011;9830;41.876;23.474;2023-04-29T05:48:13;2.47;;;1.37;;
19388;SDS011;9830;41.876;23.474;2023-04-29T05:50:39;2.30;;;1.73;;
19388;SDS011;9830;41.876;23.474;2023-04-29T05:53:05;6.97;;;2.50;;
19388;SDS011;9830;41.876;23.474;2023-04-29T05:55:31;3.00;;;2.47;;
19388;SDS011;9830;41.876;23.474;2023-04-29T05:57:57;1.63;;;1.03;;
19388;SDS011;9830;41.876;23.474;2023-04-29T06:00:23;1.73;;;1.63;;
19388;SDS011;9830;41.876;23.474;2023-04-29T06:02:48;1.57;;;1.47;;
19388;SDS011;9830;41.876;23.474;2023-04-29T06:05:14;2.00;;;1.67;;
19388;SDS011;9830;41.876;23.474;2023-04-29T06:07:41;1.47;;;1.23;;
19388;SDS011;9830;41.876;23.474;2023-04-29T06:10:07;2.87;;;1.87;;
19388;SDS011;9830;41.876;23.474;2023-04-29T06:12:34;2.07;;;1.73;;
19388;SDS011;9830;41.876;23.474;2023-04-29T06:15:00;3.50;;;2.63;;
19388;SDS011;9830;41.876;23.474;2023-04-29T06:17:26;4.30;;;1.83;;
19388;SDS011;9830;41.876;23.474;2023-04-29T06:19:56;2.10;;;1.33;;
19388;SDS011;9830;41.876;23.474;2023-04-29T06:22:21;2.23;;;2.03;;
19388;SDS011;9830;41.876;23.474;2023-04-29T06:24:47;1.77;;;1.67;;
19388;SDS011;9830;41.876;23.474;2023-04-29T06:27:14;1.27;;;1.17;;
19388;SDS011;9830;41.876;23.474;2023-04-29T06:29:40;2.23;;;2.13;;
19388;SDS011;9830;41.876;23.474;2023-04-29T06:32:07;7.17;;;2.47;;
19388;SDS011;9830;41.876;23.474;2023-04-29T06:34:32;3.97;;;1.90;;
19388;SDS011;9830;41.876;23.474;2023-04-29T06:36:58;3.43;;;2.67;;
19388;SDS011;9830;41.876;23.474;2023-04-29T06:39:24;1.47;;;1.40;;
19388;SDS011;9830;41.876;23.474;2023-04-29T06:41:51;6.70;;;2.13;;
19388;SDS011;9830;41.876;23.474;2023-04-29T06:44:17;5.60;;;2.93;;
19388;SDS011;9830;41.876;23.474;2023-04-29T06:46:43;1.87;;;1.77;;
19388;SDS011;9830;41.876;23.474;2023-04-29T06:49:09;2.87;;;1.47;;
19388;SDS011;9830;41.876;23.474;2023-04-29T06:51:38;1.20;;;1.20;;
19388;SDS011;9830;41.876;23.474;2023-04-29T06:54:04;1.37;;;1.30;;
19388;SDS011;9830;41.876;23.474;2023-04-29T06:56:29;3.30;;;1.83;;
19388;SDS011;9830;41.876;23.474;2023-04-29T06:58:55;1.53;;;1.43;;
19388;SDS011;9830;41.876;23.474;2023-04-29T07:01:21;2.90;;;1.90;;
19388;SDS011;9830;41.876;23.474;2023-04-29T07:03:47;1.47;;;1.37;;
19388;SDS011;9830;41.876;23.474;2023-04-29T07:06:13;3.93;;;1.20;;
19388;SDS011;9830;41.876;23.474;2023-04-29T07:08:38;0.97;;;0.97;;
19388;SDS011;9830;41.876;23.474;2023-04-29T07:11:04;3.00;;;1.30;;
19388;SDS011;9830;41.876;23.474;2023-04-29T07:13:33;6.63;;;1.53;;
19388;SDS011;9830;41.876;23.474;2023-04-29T07:15:59;0.50;;;0.50;;
19388;SDS011;9830;41.876;23.474;2023-04-29T07:18:25;1.50;;;1.37;;
19388;SDS011;9830;41.876;23.474;2023-04-29T07:20:50;1.23;;;1.13;;
19388;SDS011;9830;41.876;23.474;2023-04-29T07:23:16;1.93;;;1.03;;
19388;SDS011;9830;41.876;23.474;2023-04-29T07:25:42;0.40;;;0.40;;
19388;SDS011;9830;41.876;23.474;2023-04-29T07:28:08;1.07;;;1.03;;
19388;SDS011;9830;41.876;23.474;2023-04-29T07:30:34;1.03;;;0.60;;
19388;SDS011;9830;41.876;23.474;2023-04-29T07:33:00;0.50;;;0.50;;
19388;SDS011;9830;41.876;23.474;2023-04-29T07:35:26;0.73;;;0.73;;
19388;SDS011;9830;41.876;23.474;2023-04-29T07:37:52;0.63;;;0.63;;
19388;SDS011;9830;41.876;23.474;2023-04-29T07:40:18;0.30;;;0.30;;
19388;SDS011;9830;41.876;23.474;2023-04-29T07:42:44;0.70;;;0.70;;
19388;SDS011;9830;41.876;23.474;2023-04-29T07:45:10;0.95;;;0.88;;
19388;SDS011;9830;41.876;23.474;2023-04-29T07:47:37;0.65;;;0.65;;
19388;SDS011;9830;41.876;23.474;2023-04-29T07:50:04;8.77;;;1.40;;
19388;SDS011;9830;41.876;23.474;2023-04-29T07:52:30;0.52;;;0.52;;
19388;SDS011;9830;41.876;23.474;2023-04-29T07:54:56;0.50;;;0.50;;
19388;SDS011;9830;41.876;23.474;2023-04-29T07:57:22;0.85;;;0.85;;
19388;SDS011;9830;41.876;23.474;2023-04-29T07:59:53;19.35;;;1.05;;
19388;SDS011;9830;41.876;23.474;2023-04-29T08:02:19;0.80;;;0.80;;
19388;SDS011;9830;41.876;23.474;2023-04-29T08:04:45;0.55;;;0.55;;
19388;SDS011;9830;41.876;23.474;2023-04-29T08:07:11;1.02;;;0.85;;
19388;SDS011;9830;41.876;23.474;2023-04-29T08:09:37;0.98;;;0.98;;
19388;SDS011;9830;41.876;23.474;2023-04-29T08:12:03;0.40;;;0.40;;
19388;SDS011;9830;41.876;23.474;2023-04-29T08:14:29;0.25;;;0.25;;
19388;SDS011;9830;41.876;23.474;2023-04-29T08:16:55;0.98;;;0.57;;
19388;SDS011;9830;41.876;23.474;2023-04-29T08:19:21;1.40;;;1.00;;
19388;SDS011;9830;41.876;23.474;2023-04-29T08:21:47;0.82;;;0.82;;
19388;SDS011;9830;41.876;23.474;2023-04-29T08:24:13;0.82;;;0.82;;
19388;SDS011;9830;41.876;23.474;2023-04-29T08:26:39;0.60;;;0.60;;
19388;SDS011;9830;41.876;23.474;2023-04-29T08:29:05;0.52;;;0.50;;
19388;SDS011;9830;41.876;23.474;2023-04-29T08:31:31;0.38;;;0.35;;
19388;SDS011;9830;41.876;23.474;2023-04-29T08:33:57;0.40;;;0.40;;
19388;SDS011;9830;41.876;23.474;2023-04-29T08:36:24;0.35;;;0.35;;
19388;SDS011;9830;41.876;23.474;2023-04-29T08:38:53;1.75;;;1.50;;
19388;SDS011;9830;41.876;23.474;2023-04-29T08:41:19;1.40;;;0.90;;
19388;SDS011;9830;41.876;23.474;2023-04-29T08:43:45;4.63;;;1.52;;
19388;SDS011;9830;41.876;23.474;2023-04-29T08:46:11;0.43;;;0.43;;
19388;SDS011;9830;41.876;23.474;2023-04-29T08:48:37;0.80;;;0.80;;
19388;SDS011;9830;41.876;23.474;2023-04-29T08:51:06;3.17;;;1.65;;
19388;SDS011;9830;41.876;23.474;2023-04-29T08:53:35;0.57;;;0.57;;
19388;SDS011;9830;41.876;23.474;2023-04-29T08:56:02;1.48;;;1.17;;
19388;SDS011;9830;41.876;23.474;2023-04-29T08:58:33;1.85;;;0.50;;
19388;SDS011;9830;41.876;23.474;2023-04-29T09:01:00;0.60;;;0.47;;
19388;SDS011;9830;41.876;23.474;2023-04-29T09:03:30;1.02;;;0.68;;
19388;SDS011;9830;41.876;23.474;2023-04-29T09:05:58;0.55;;;0.55;;
19388;SDS011;9830;41.876;23.474;2023-04-29T09:08:25;0.45;;;0.45;;
19388;SDS011;9830;41.876;23.474;2023-04-29T09:10:52;0.25;;;0.25;;
19388;SDS011;9830;41.876;23.474;2023-04-29T09:13:22;4.57;;;1.08;;
19388;SDS011;9830;41.876;23.474;2023-04-29T09:15:49;0.63;;;0.63;;
19388;SDS011;9830;41.876;23.474;2023-04-29T09:23:41;0.50;;;0.50;;
19388;SDS011;9830;41.876;23.474;2023-04-29T09:26:07;0.70;;;0.70;;
19388;SDS011;9830;41.876;23.474;2023-04-29T09:28:33;0.60;;;0.60;;
19388;SDS011;9830;41.876;23.474;2023-04-29T09:31:00;0.73;;;0.63;;
19388;SDS011;9830;41.876;23.474;2023-04-29T09:33:30;0.20;;;0.20;;
19388;SDS011;9830;41.876;23.474;2023-04-29T09:35:56;0.50;;;0.50;;
19388;SDS011;9830;41.876;23.474;2023-04-29T09:38:22;0.70;;;0.70;;
19388;SDS011;9830;41.876;23.474;2023-04-29T09:40:48;0.47;;;0.47;;
19388;SDS011;9830;41.876;23.474;2023-04-29T09:43:17;0.85;;;0.85;;
19388;SDS011;9830;41.876;23.474;2023-04-29T09:45:44;0.52;;;0.52;;
19388;SDS011;9830;41.876;23.474;2023-04-29T09:48:11;2.28;;;0.50;;
19388;SDS011;9830;41.876;23.474;2023-04-29T09:50:38;0.30;;;0.30;;
19388;SDS011;9830;41.876;23.474;2023-04-29T09:53:06;0.22;;;0.22;;
19388;SDS011;9830;41.876;23.474;2023-04-29T09:55:37;0.23;;;0.23;;
19388;SDS011;9830;41.876;23.474;2023-04-29T09:58:35;0.30;;;0.30;;
19388;SDS011;9830;41.876;23.474;2023-04-29T10:01:04;0.50;;;0.50;;
19388;SDS011;9830;41.876;23.474;2023-04-29T10:03:31;10.00;;;0.57;;
19388;SDS011;9830;41.876;23.474;2023-04-29T10:05:58;0.40;;;0.40;;
19388;SDS011;9830;41.876;23.474;2023-04-29T10:08:26;0.63;;;0.63;;
19388;SDS011;9830;41.876;23.474;2023-04-29T10:10:52;0.30;;;0.30;;
19388;SDS011;9830;41.876;23.474;2023-04-29T10:13:25;0.30;;;0.30;;
19388;SDS011;9830;41.876;23.474;2023-04-29T10:15:56;0.23;;;0.23;;
19388;SDS011;9830;41.876;23.474;2023-04-29T10:18:29;0.30;;;0.30;;
19388;SDS011;9830;41.876;23.474;2023-04-29T10:21:01;6.80;;;1.77;;
19388;SDS011;9830;41.876;23.474;2023-04-29T10:23:31;0.33;;;0.33;;
19388;SDS011;9830;41.876;23.474;2023-04-29T10:25:58;0.37;;;0.37;;
19388;SDS011;9830;41.876;23.474;2023-04-29T10:28:28;1.40;;;0.40;;
19388;SDS011;9830;41.876;23.474;2023-04-29T10:30:56;0.20;;;0.20;;
19388;SDS011;9830;41.876;23.474;2023-04-29T10:33:30;0.17;;;0.17;;
19388;SDS011;9830;41.876;23.474;2023-04-29T10:35:58;0.93;;;0.40;;
19388;SDS011;9830;41.876;23.474;2023-04-29T10:38:33;0.10;;;0.10;;
19388;SDS011;9830;41.876;23.474;2023-04-29T10:41:33;4.07;;;0.93;;
19388;SDS011;9830;41.876;23.474;2023-04-29T10:44:11;0.50;;;0.50;;
19388;SDS011;9830;41.876;23.474;2023-04-29T10:46:37;0.33;;;0.33;;
19388;SDS011;9830;41.876;23.474;2023-04-29T10:49:04;0.13;;;0.13;;
19388;SDS011;9830;41.876;23.474;2023-04-29T10:51:41;0.77;;;0.30;;
19388;SDS011;9830;41.876;23.474;2023-04-29T10:56:46;0.10;;;0.10;;
19388;SDS011;9830;41.876;23.474;2023-04-29T10:59:17;0.20;;;0.20;;
19388;SDS011;9830;41.876;23.474;2023-04-29T11:01:49;0.30;;;0.30;;
19388;SDS011;9830;41.876;23.474;2023-04-29T11:04:16;0.37;;;0.37;;
19388;SDS011;9830;41.876;23.474;2023-04-29T11:06:44;0.23;;;0.23;;
19388;SDS011;9830;41.876;23.474;2023-04-29T11:09:13;6.90;;;0.53;;
19388;SDS011;9830;41.876;23.474;2023-04-29T11:12:07;0.73;;;0.47;;
19388;SDS011;9830;41.876;23.474;2023-04-29T11:19:34;0.10;;;0.10;;
19388;SDS011;9830;41.876;23.474;2023-04-29T11:22:11;0.23;;;0.23;;
19388;SDS011;9830;41.876;23.474;2023-04-29T11:27:15;0.57;;;0.30;;
19388;SDS011;9830;41.876;23.474;2023-04-29T11:29:41;0.03;;;0.03;;
19388;SDS011;9830;41.876;23.474;2023-04-29T11:32:10;0.00;;;0.00;;
19388;SDS011;9830;41.876;23.474;2023-04-29T11:34:36;0.63;;;0.43;;
19388;SDS011;9830;41.876;23.474;2023-04-29T11:37:03;0.00;;;0.00;;
19388;SDS011;9830;41.876;23.474;2023-04-29T11:39:32;0.20;;;0.20;;
19388;SDS011;9830;41.876;23.474;2023-04-29T11:42:03;0.30;;;0.30;;
19388;SDS011;9830;41.876;23.474;2023-04-29T11:44:35;0.17;;;0.17;;
19388;SDS011;9830;41.876;23.474;2023-04-29T11:47:05;2.67;;;0.53;;
19388;SDS011;9830;41.876;23.474;2023-04-29T11:49:31;0.10;;;0.10;;
19388;SDS011;9830;41.876;23.474;2023-04-29T11:51:58;0.70;;;0.37;;
19388;SDS011;9830;41.876;23.474;2023-04-29T11:54:25;0.13;;;0.13;;
19388;SDS011;9830;41.876;23.474;2023-04-29T11:56:54;0.40;;;0.37;;
19388;SDS011;9830;41.876;23.474;2023-04-29T11:59:21;0.20;;;0.20;;
19388;SDS011;9830;41.876;23.474;2023-04-29T12:01:48;1.70;;;1.00;;
19388;SDS011;9830;41.876;23.474;2023-04-29T12:04:14;1.00;;;0.70;;
19388;SDS011;9830;41.876;23.474;2023-04-29T12:06:40;0.50;;;0.50;;
19388;SDS011;9830;41.876;23.474;2023-04-29T12:09:06;0.40;;;0.20;;
19388;SDS011;9830;41.876;23.474;2023-04-29T12:11:32;2.10;;;0.90;;
19388;SDS011;9830;41.876;23.474;2023-04-29T12:13:59;0.10;;;0.10;;
19388;SDS011;9830;41.876;23.474;2023-04-29T12:16:27;0.40;;;0.40;;
19388;SDS011;9830;41.876;23.474;2023-04-29T12:18:54;0.10;;;0.10;;
19388;SDS011;9830;41.876;23.474;2023-04-29T12:21:21;0.10;;;0.10;;
19388;SDS011;9830;41.876;23.474;2023-04-29T12:23:47;0.43;;;0.20;;
19388;SDS011;9830;41.876;23.474;2023-04-29T12:26:12;0.03;;;0.03;;
19388;SDS011;9830;41.876;23.474;2023-04-29T12:28:41;0.00;;;0.00;;
19388;SDS011;9830;41.876;23.474;2023-04-29T12:31:08;0.30;;;0.30;;
19388;SDS011;9830;41.876;23.474;2023-04-29T12:33:35;0.07;;;0.07;;
19388;SDS011;9830;41.876;23.474;2023-04-29T12:36:01;0.20;;;0.13;;
19388;SDS011;9830;41.876;23.474;2023-04-29T12:38:28;0.30;;;0.30;;
19388;SDS011;9830;41.876;23.474;2023-04-29T12:40:59;0.03;;;0.03;;
19388;SDS011;9830;41.876;23.474;2023-04-29T12:43:29;2.47;;;0.77;;
19388;SDS011;9830;41.876;23.474;2023-04-29T12:46:03;0.00;;;0.00;;
19388;SDS011;9830;41.876;23.474;2023-04-29T12:48:30;0.17;;;0.17;;
19388;SDS011;9830;41.876;23.474;2023-04-29T12:50:56;1.23;;;0.40;;
19388;SDS011;9830;41.876;23.474;2023-04-29T12:53:24;0.93;;;0.60;;
19388;SDS011;9830;41.876;23.474;2023-04-29T12:55:51;0.47;;;0.47;;
19388;SDS011;9830;41.876;23.474;2023-04-29T12:58:18;1.07;;;0.97;;
19388;SDS011;9830;41.876;23.474;2023-04-29T13:00:44;0.93;;;0.37;;
19388;SDS011;9830;41.876;23.474;2023-04-29T13:03:09;0.60;;;0.53;;
19388;SDS011;9830;41.876;23.474;2023-04-29T13:05:35;1.57;;;0.30;;
19388;SDS011;9830;41.876;23.474;2023-04-29T13:08:01;0.10;;;0.10;;
19388;SDS011;9830;41.876;23.474;2023-04-29T13:10:30;0.43;;;0.43;;
19388;SDS011;9830;41.876;23.474;2023-04-29T13:12:55;0.70;;;0.70;;
19388;SDS011;9830;41.876;23.474;2023-04-29T13:15:21;0.43;;;0.43;;
19388;SDS011;9830;41.876;23.474;2023-04-29T13:17:47;0.00;;;0.00;;
19388;SDS011;9830;41.876;23.474;2023-04-29T13:20:13;0.20;;;0.10;;
19388;SDS011;9830;41.876;23.474;2023-04-29T13:22:39;0.10;;;0.10;;
19388;SDS011;9830;41.876;23.474;2023-04-29T13:25:10;2.80;;;0.90;;
19388;SDS011;9830;41.876;23.474;2023-04-29T13:27:36;0.27;;;0.27;;
19388;SDS011;9830;41.876;23.474;2023-04-29T13:30:03;0.50;;;0.30;;
19388;SDS011;9830;41.876;23.474;2023-04-29T13:32:30;0.10;;;0.10;;
19388;SDS011;9830;41.876;23.474;2023-04-29T13:34:56;0.17;;;0.17;;
19388;SDS011;9830;41.876;23.474;2023-04-29T13:37:21;0.47;;;0.37;;
19388;SDS011;9830;41.876;23.474;2023-04-29T13:39:47;0.20;;;0.20;;
19388;SDS011;9830;41.876;23.474;2023-04-29T13:42:12;4.80;;;0.93;;
19388;SDS011;9830;41.876;23.474;2023-04-29T13:44:38;0.20;;;0.20;;
19388;SDS011;9830;41.876;23.474;2023-04-29T13:47:08;0.50;;;0.43;;
19388;SDS011;9830;41.876;23.474;2023-04-29T13:49:35;0.10;;;0.10;;
19388;SDS011;9830;41.876;23.474;2023-04-29T13:52:01;0.97;;;0.83;;
19388;SDS011;9830;41.876;23.474;2023-04-29T13:54:27;0.30;;;0.30;;
19388;SDS011;9830;41.876;23.474;2023-04-29T13:56:53;0.00;;;0.00;;
19388;SDS011;9830;41.876;23.474;2023-04-29T13:59:19;0.20;;;0.20;;
19388;SDS011;9830;41.876;23.474;2023-04-29T14:01:45;0.03;;;0.03;;
19388;SDS011;9830;41.876;23.474;2023-04-29T14:04:11;0.40;;;0.23;;
19388;SDS011;9830;41.876;23.474;2023-04-29T14:06:37;8.70;;;1.07;;
19388;SDS011;9830;41.876;23.474;2023-04-29T14:09:02;0.20;;;0.20;;
19388;SDS011;9830;41.876;23.474;2023-04-29T14:11:28;0.10;;;0.10;;
19388;SDS011;9830;41.876;23.474;2023-04-29T14:13:54;3.10;;;0.60;;
19388;SDS011;9830;41.876;23.474;2023-04-29T14:16:20;0.10;;;0.10;;
19388;SDS011;9830;41.876;23.474;2023-04-29T14:18:45;0.50;;;0.50;;
19388;SDS011;9830;41.876;23.474;2023-04-29T14:21:11;0.10;;;0.10;;
19388;SDS011;9830;41.876;23.474;2023-04-29T14:23:37;0.77;;;0.67;;
19388;SDS011;9830;41.876;23.474;2023-04-29T14:26:03;2.00;;;1.03;;
19388;SDS011;9830;41.876;23.474;2023-04-29T14:28:29;0.30;;;0.30;;
19388;SDS011;9830;41.876;23.474;2023-04-29T14:30:54;0.57;;;0.30;;
19388;SDS011;9830;41.876;23.474;2023-04-29T14:33:20;0.17;;;0.17;;
19388;SDS011;9830;41.876;23.474;2023-04-29T14:35:47;0.00;;;0.00;;
19388;SDS011;9830;41.876;23.474;2023-04-29T14:38:12;0.10;;;0.10;;
19388;SDS011;9830;41.876;23.474;2023-04-29T14:40:38;0.20;;;0.20;;
19388;SDS011;9830;41.876;23.474;2023-04-29T14:43:04;0.00;;;0.00;;
19388;SDS011;9830;41.876;23.474;2023-04-29T14:45:30;0.00;;;0.00;;
19388;SDS011;9830;41.876;23.474;2023-04-29T14:47:56;0.00;;;0.00;;
19388;SDS011;9830;41.876;23.474;2023-04-29T14:50:22;1.33;;;0.43;;
19388;SDS011;9830;41.876;23.474;2023-04-29T14:52:49;0.07;;;0.07;;
19388;SDS011;9830;41.876;23.474;2023-04-29T14:55:15;1.33;;;0.83;;
19388;SDS011;9830;41.876;23.474;2023-04-29T14:57:40;0.43;;;0.30;;
19388;SDS011;9830;41.876;23.474;2023-04-29T15:00:06;4.03;;;0.87;;
19388;SDS011;9830;41.876;23.474;2023-04-29T15:02:32;0.23;;;0.23;;
19388;SDS011;9830;41.876;23.474;2023-04-29T15:04:58;0.50;;;0.50;;
19388;SDS011;9830;41.876;23.474;2023-04-29T15:07:31;0.43;;;0.40;;
19388;SDS011;9830;41.876;23.474;2023-04-29T15:09:57;0.40;;;0.40;;
19388;SDS011;9830;41.876;23.474;2023-04-29T15:12:23;0.10;;;0.10;;
19388;SDS011;9830;41.876;23.474;2023-04-29T15:14:49;0.20;;;0.20;;
19388;SDS011;9830;41.876;23.474;2023-04-29T15:17:18;0.87;;;0.53;;